Klondike, Illinois
Current Conditions -  °F | °C
As of 9:35 PM on Friday 19 Dec 2014 (Local Time) from KCIR Reporting Station
Scattered Clouds Scattered Clouds  
Wind Chill: 34°   Ceiling: Unl
Heat Index: 38°   Visibility: 10mi
Dew Point: 30°   Wind: 5mph
Humidity: 75%   Direction: 60°ENE
Pressure: 30.27"   Gusts: NA
Location:  37.048°N, 89.2036°W
Report Text: KCIR 200335Z AUTO 06004KT 10SM SCT110 03/M01 A3027 RMK AO2 T00311010
Loading
Personal Weather Stations






























Interactive Weather Map New forecast layout! Learn more

10-Day Weather Forecast

Advertisements
Track Severe Weather on mobile